EGPI/ILY METAR and TAF weather

Enter ICAO airport designator
Station Type Date Time Source
EGPI METAR 2021/05/11 22:50 UTC NOAA

EGPI 112250Z AUTO VRB02KT 9999 NCD 06/03 Q1006


Station Type Date Time Source
EGPI Decoded METAR 2021/05/11 22:50 UTC NOAA

Islay, United Kingdom (EGPI) 55-40-55N 006-15-24W
May 11, 2021 - 06:50 PM EDT / 2021.05.11 2250 UTC
Wind: Variable at 2 MPH (2 KT):0
Visibility: greater than 7 mile(s):0
Temperature: 42 F (6 C)
Dew Point: 37 F (3 C)
Relative Humidity: 81%
Pressure (altimeter): 29.71 in. Hg (1006 hPa)
ob: EGPI 112250Z AUTO VRB02KT 9999 NCD 06/03 Q1006
cycle: 23

Station Type Date Time Source
EGPI TAF UTC NOAA

Error!

Example: see airport list